createdAt,value
2023-02-09T00:01:50.010Z,100.00
2023-02-09T00:04:21.692Z,100.00
2023-02-09T00:06:53.186Z,100.00
2023-02-09T00:09:25.011Z,100.00
2023-02-09T00:12:15.580Z,100.00
2023-02-09T00:14:47.086Z,100.00
2023-02-09T00:17:19.018Z,100.00
2023-02-09T00:19:50.519Z,100.00
2023-02-09T00:22:22.302Z,100.00
2023-02-09T00:24:55.491Z,100.00
2023-02-09T00:27:28.157Z,100.00
2023-02-09T00:29:59.657Z,100.00
2023-02-09T00:32:31.465Z,100.00
2023-02-09T00:35:03.181Z,100.00
2023-02-09T00:37:35.110Z,100.00
2023-02-09T00:40:06.665Z,100.00
2023-02-09T00:42:38.722Z,100.00
2023-02-09T00:45:10.241Z,100.00
2023-02-09T00:47:42.196Z,100.00
2023-02-09T00:50:13.697Z,100.00
2023-02-09T00:52:45.512Z,100.00
2023-02-09T00:55:17.015Z,100.00
2023-02-09T00:57:48.797Z,100.00
2023-02-09T01:00:21.419Z,100.00
2023-02-09T01:02:53.312Z,100.00
2023-02-09T01:05:24.823Z,100.00
2023-02-09T01:07:56.629Z,100.00
2023-02-09T01:10:28.137Z,100.00
2023-02-09T01:12:59.861Z,100.00
2023-02-09T01:15:31.388Z,100.00
2023-02-09T01:18:03.242Z,100.00
2023-02-09T01:20:34.778Z,100.00
2023-02-09T01:23:06.686Z,100.00
2023-02-09T01:25:38.182Z,100.00
2023-02-09T01:28:10.086Z,100.00
2023-02-09T01:30:41.687Z,100.00
2023-02-09T01:33:13.513Z,100.00
2023-02-09T01:35:45.014Z,100.00
2023-02-09T01:38:16.755Z,100.00
2023-02-09T01:40:48.297Z,100.00
2023-02-09T01:43:20.296Z,100.00
2023-02-09T01:45:54.537Z,100.00
2023-02-09T01:48:26.485Z,100.00
2023-02-09T01:50:57.986Z,100.00
2023-02-09T01:53:29.754Z,100.00
2023-02-09T01:56:01.255Z,100.00
2023-02-09T01:58:32.955Z,100.00
2023-02-09T02:01:04.489Z,100.00
2023-02-09T02:03:36.368Z,100.00
2023-02-09T02:06:07.861Z,100.00
2023-02-09T02:08:39.729Z,100.00
2023-02-09T02:11:11.219Z,100.00
2023-02-09T02:13:43.056Z,100.00
2023-02-09T02:16:14.643Z,100.00
2023-02-09T02:18:46.440Z,100.00
2023-02-09T02:21:17.961Z,100.00
2023-02-09T02:23:49.920Z,100.00
2023-02-09T02:26:21.421Z,100.00
2023-02-09T02:28:53.014Z,100.00
2023-02-09T02:31:24.614Z,100.00
2023-02-09T02:33:56.640Z,100.00
2023-02-09T02:36:28.481Z,100.00
2023-02-09T02:39:00.178Z,100.00
2023-02-09T02:41:51.693Z,100.00
2023-02-09T02:44:23.532Z,100.00
2023-02-09T02:46:55.015Z,100.00
2023-02-09T02:49:26.809Z,100.00
2023-02-09T02:51:58.311Z,100.00
2023-02-09T02:54:30.016Z,100.00
2023-02-09T02:57:03.302Z,100.00
2023-02-09T02:59:35.043Z,100.00
2023-02-09T03:02:06.605Z,100.00
2023-02-09T03:04:38.521Z,100.00
2023-02-09T03:07:10.028Z,100.00
2023-02-09T03:09:41.946Z,100.00
2023-02-09T03:12:13.446Z,100.00
2023-02-09T03:14:45.313Z,100.00
2023-02-09T03:17:16.818Z,100.00
2023-02-09T03:19:48.613Z,100.00
2023-02-09T03:22:20.131Z,100.00
2023-02-09T03:24:51.993Z,100.00
2023-02-09T03:27:23.501Z,100.00
2023-02-09T03:29:55.545Z,100.00
2023-02-09T03:32:27.116Z,100.00
2023-02-09T03:34:59.213Z,100.00
2023-02-09T03:37:30.701Z,100.00
2023-02-09T03:40:02.492Z,100.00
2023-02-09T03:42:33.991Z,100.00
2023-02-09T03:45:08.344Z,100.00
2023-02-09T03:47:39.881Z,100.00
2023-02-09T03:50:11.864Z,100.00
2023-02-09T03:52:43.410Z,100.00
2023-02-09T03:55:15.404Z,100.00
2023-02-09T03:57:46.923Z,100.00
2023-02-09T04:00:18.984Z,100.00
2023-02-09T04:02:50.547Z,100.00
2023-02-09T04:05:23.074Z,100.00
2023-02-09T04:07:54.837Z,100.00
2023-02-09T04:10:26.368Z,100.00
2023-02-09T04:12:57.907Z,100.00
2023-02-09T04:15:29.605Z,100.00
2023-02-09T04:18:01.119Z,100.00
2023-02-09T04:20:32.631Z,100.00
2023-02-09T04:23:04.134Z,100.00
2023-02-09T04:25:36.003Z,100.00
2023-02-09T04:28:07.615Z,100.00
2023-02-09T04:30:39.478Z,100.00
2023-02-09T04:33:11.308Z,100.00
2023-02-09T04:35:45.841Z,100.00
2023-02-09T04:38:19.457Z,100.00
2023-02-09T04:40:51.330Z,100.00
2023-02-09T04:43:22.842Z,100.00
2023-02-09T04:45:55.041Z,100.00
2023-02-09T04:48:26.590Z,100.00
2023-02-09T04:50:58.316Z,100.00
2023-02-09T04:53:30.030Z,100.00
2023-02-09T04:56:01.555Z,100.00
2023-02-09T04:58:52.094Z,100.00
2023-02-09T05:01:23.661Z,100.00
2023-02-09T05:03:55.702Z,100.00
2023-02-09T05:06:27.206Z,100.00
2023-02-09T05:08:58.910Z,100.00
2023-02-09T05:11:30.427Z,100.00
2023-02-09T05:14:02.433Z,100.00
2023-02-09T05:16:34.051Z,100.00
2023-02-09T05:19:05.868Z,100.00
2023-02-09T05:21:37.392Z,100.00
2023-02-09T05:24:08.897Z,100.00
2023-02-09T05:26:40.396Z,100.00
2023-02-09T05:29:11.959Z,100.00
2023-02-09T05:31:43.546Z,100.00
2023-02-09T05:34:15.398Z,100.00
2023-02-09T05:36:47.757Z,100.00
2023-02-09T05:39:19.544Z,100.00
2023-02-09T05:42:09.931Z,100.00
2023-02-09T05:44:41.677Z,100.00
2023-02-09T05:47:13.212Z,100.00
2023-02-09T05:49:45.023Z,100.00
2023-02-09T05:52:16.707Z,100.00
2023-02-09T05:54:48.652Z,100.00
2023-02-09T05:57:20.174Z,100.00
2023-02-09T05:59:52.025Z,100.00
2023-02-09T06:02:23.559Z,100.00
2023-02-09T06:04:55.415Z,100.00
2023-02-09T06:07:26.951Z,100.00
2023-02-09T06:09:58.597Z,100.00
2023-02-09T06:12:30.137Z,100.00
2023-02-09T06:15:02.953Z,100.00
2023-02-09T06:17:34.469Z,100.00
2023-02-09T06:20:06.075Z,100.00
2023-02-09T06:22:37.566Z,100.00
2023-02-09T06:25:09.191Z,100.00
2023-02-09T06:27:40.714Z,100.00
2023-02-09T06:30:12.333Z,100.00
2023-02-09T06:32:43.793Z,100.00
2023-02-09T06:35:15.554Z,100.00
2023-02-09T06:37:47.024Z,100.00
2023-02-09T06:40:18.699Z,100.00
2023-02-09T06:42:50.212Z,100.00
2023-02-09T06:45:21.844Z,100.00
2023-02-09T06:47:53.328Z,100.00
2023-02-09T06:50:27.579Z,100.00
2023-02-09T06:52:59.195Z,100.00
2023-02-09T06:55:31.080Z,100.00
2023-02-09T06:58:02.571Z,100.00
2023-02-09T07:00:34.110Z,100.00
2023-02-09T07:03:05.713Z,100.00
2023-02-09T07:05:37.594Z,100.00
2023-02-09T07:08:09.141Z,100.00
2023-02-09T07:10:40.711Z,100.00
2023-02-09T07:13:12.234Z,100.00
2023-02-09T07:15:43.727Z,100.00
2023-02-09T07:18:15.222Z,100.00
2023-02-09T07:20:47.168Z,100.00
2023-02-09T07:23:18.808Z,99.42
2023-02-09T07:25:50.817Z,98.71
2023-02-09T07:28:22.558Z,98.56
2023-02-09T07:30:54.457Z,98.34
2023-02-09T07:33:26.013Z,96.24
2023-02-09T07:35:57.606Z,96.61
2023-02-09T07:38:29.153Z,96.79
2023-02-09T07:41:00.939Z,95.13
2023-02-09T07:43:32.450Z,94.16
2023-02-09T07:46:04.139Z,94.34
2023-02-09T07:48:35.623Z,94.73
2023-02-09T07:51:07.530Z,94.32
2023-02-09T07:53:39.003Z,92.78
2023-02-09T07:56:10.762Z,93.29
2023-02-09T07:58:42.272Z,90.56
2023-02-09T08:01:14.147Z,90.77
2023-02-09T08:03:45.742Z,89.73
2023-02-09T08:06:19.719Z,89.81
2023-02-09T08:08:51.621Z,89.21
2023-02-09T08:11:23.116Z,89.22
2023-02-09T08:13:54.579Z,87.42
2023-02-09T08:16:26.522Z,88.87
2023-02-09T08:18:58.014Z,87.40
2023-02-09T08:21:29.510Z,86.07
2023-02-09T08:24:01.031Z,86.37
2023-02-09T08:26:32.890Z,86.40
2023-02-09T08:29:04.434Z,85.22
2023-02-09T08:31:36.076Z,85.62
2023-02-09T08:34:07.659Z,84.53
2023-02-09T08:36:41.661Z,83.93
2023-02-09T08:39:13.173Z,83.43
2023-02-09T08:41:46.250Z,82.73
2023-02-09T08:44:17.973Z,84.31
2023-02-09T08:46:49.810Z,81.85
2023-02-09T08:49:21.449Z,81.71
2023-02-09T08:51:53.343Z,81.68
2023-02-09T08:54:25.412Z,81.01
2023-02-09T08:56:57.310Z,80.40
2023-02-09T08:59:28.814Z,80.61
2023-02-09T09:02:00.628Z,81.01
2023-02-09T09:04:32.165Z,78.84
2023-02-09T09:07:04.199Z,79.92
2023-02-09T09:09:35.703Z,78.41
2023-02-09T09:12:07.287Z,78.13
2023-02-09T09:14:39.623Z,77.33
2023-02-09T09:17:11.170Z,77.87
2023-02-09T09:19:42.728Z,76.94
2023-02-09T09:22:14.224Z,76.08
2023-02-09T09:24:45.934Z,75.09
2023-02-09T09:27:17.426Z,74.29
2023-02-09T09:29:49.701Z,73.03
2023-02-09T09:32:25.026Z,72.54
2023-02-09T09:34:57.896Z,71.05
2023-02-09T09:37:29.440Z,70.26
2023-02-09T09:40:01.188Z,70.57
2023-02-09T09:42:32.690Z,68.65
2023-02-09T09:45:04.387Z,66.70
2023-02-09T09:47:35.996Z,66.06
2023-02-09T09:50:08.068Z,66.22
2023-02-09T09:52:41.948Z,66.61
2023-02-09T09:55:13.637Z,66.11
2023-02-09T09:57:45.121Z,65.71
2023-02-09T10:00:16.863Z,65.82
2023-02-09T10:02:49.532Z,64.97
2023-02-09T10:05:21.381Z,63.70
2023-02-09T10:07:52.878Z,63.71
2023-02-09T10:10:24.592Z,64.44
2023-02-09T10:12:56.116Z,63.71
2023-02-09T10:15:28.301Z,62.33
2023-02-09T10:17:59.799Z,62.63
2023-02-09T10:20:31.544Z,60.17
2023-02-09T10:23:03.056Z,61.39
2023-02-09T10:25:34.827Z,59.68
2023-02-09T10:28:06.476Z,59.11
2023-02-09T10:30:38.089Z,59.25
2023-02-09T10:33:09.579Z,59.96
2023-02-09T10:35:41.521Z,60.22
2023-02-09T10:38:13.069Z,58.63
2023-02-09T10:40:44.961Z,57.18
2023-02-09T10:43:16.423Z,57.80
2023-02-09T10:45:48.655Z,56.69
2023-02-09T10:48:20.400Z,57.33
2023-02-09T10:50:52.305Z,57.03
2023-02-09T10:53:23.914Z,55.67
2023-02-09T10:55:55.925Z,56.38
2023-02-09T10:58:27.649Z,55.99
2023-02-09T11:00:59.494Z,56.34
2023-02-09T11:03:31.061Z,56.38
2023-02-09T11:06:03.107Z,55.66
2023-02-09T11:08:34.636Z,57.12
2023-02-09T11:11:06.565Z,57.59
2023-02-09T11:13:38.099Z,56.72
2023-02-09T11:16:09.820Z,56.99
2023-02-09T11:18:41.389Z,57.36
2023-02-09T11:21:13.305Z,56.04
2023-02-09T11:23:44.814Z,57.33
2023-02-09T11:26:16.670Z,57.54
2023-02-09T11:28:48.138Z,57.18
2023-02-09T11:31:20.081Z,58.52
2023-02-09T11:33:51.598Z,58.32
2023-02-09T11:36:23.389Z,57.50
2023-02-09T11:38:54.853Z,56.76
2023-02-09T11:41:45.598Z,57.02
2023-02-09T11:44:17.104Z,56.36
2023-02-09T11:46:52.465Z,55.85
2023-02-09T11:49:23.988Z,56.86
2023-02-09T11:51:55.765Z,56.34
2023-02-09T11:54:27.305Z,56.12
2023-02-09T11:57:02.646Z,54.66
2023-02-09T11:59:34.308Z,54.92
2023-02-09T12:02:06.191Z,54.45
2023-02-09T12:04:37.779Z,54.79
2023-02-09T12:07:09.939Z,55.65
2023-02-09T12:09:41.478Z,55.43
2023-02-09T12:12:13.883Z,55.21
2023-02-09T12:14:45.895Z,54.82
2023-02-09T12:17:17.748Z,55.40
2023-02-09T12:19:51.958Z,54.27
2023-02-09T12:22:23.827Z,54.04
2023-02-09T12:24:55.323Z,53.21
2023-02-09T12:27:27.106Z,54.30
2023-02-09T12:29:59.054Z,53.65
2023-02-09T12:32:31.058Z,53.63
2023-02-09T12:35:02.962Z,53.46
2023-02-09T12:37:37.384Z,53.52
2023-02-09T12:40:11.936Z,53.72
2023-02-09T12:42:43.814Z,53.73
2023-02-09T12:45:15.316Z,53.30
2023-02-09T12:47:47.618Z,53.22
2023-02-09T12:50:19.096Z,53.25
2023-02-09T12:52:50.911Z,53.36
2023-02-09T12:55:22.400Z,54.25
2023-02-09T12:57:54.188Z,53.42
2023-02-09T13:00:25.688Z,54.13
2023-02-09T13:02:57.965Z,54.24
2023-02-09T13:05:29.508Z,52.85
2023-02-09T13:08:01.298Z,52.87
2023-02-09T13:10:32.794Z,53.55
2023-02-09T13:13:04.794Z,52.72
2023-02-09T13:15:36.766Z,53.45
2023-02-09T13:18:08.817Z,53.56
2023-02-09T13:20:40.290Z,52.41
2023-02-09T13:23:12.103Z,52.59
2023-02-09T13:25:44.285Z,51.91
2023-02-09T13:28:16.652Z,53.07
2023-02-09T13:30:48.215Z,53.71
2023-02-09T13:33:20.097Z,54.50
2023-02-09T13:35:51.609Z,54.04
2023-02-09T13:38:24.119Z,54.28
2023-02-09T13:40:55.638Z,53.42
2023-02-09T13:43:27.219Z,53.23
2023-02-09T13:45:58.815Z,54.55
2023-02-09T13:48:30.999Z,54.13
2023-02-09T13:51:02.519Z,53.14
2023-02-09T13:53:34.568Z,52.30
2023-02-09T13:56:06.085Z,53.21
2023-02-09T13:58:38.045Z,53.76
2023-02-09T14:01:09.776Z,54.08
2023-02-09T14:03:56.740Z,53.89
2023-02-09T14:06:29.230Z,54.43
2023-02-09T14:09:01.292Z,54.30
2023-02-09T14:11:41.838Z,54.33
2023-02-09T14:14:14.373Z,55.58
2023-02-09T14:16:53.591Z,55.28
2023-02-09T14:19:25.576Z,55.48
2023-02-09T14:21:57.397Z,56.96
2023-02-09T14:24:28.941Z,56.53
2023-02-09T14:27:04.067Z,56.09
2023-02-09T14:29:35.694Z,56.47
2023-02-09T14:32:07.811Z,56.12
2023-02-09T14:34:39.339Z,56.20
2023-02-09T14:37:11.301Z,56.82
2023-02-09T14:39:44.073Z,56.74
2023-02-09T14:42:20.954Z,57.04
2023-02-09T14:44:52.483Z,57.88
2023-02-09T14:47:26.813Z,58.40
2023-02-09T14:49:58.382Z,58.24
2023-02-09T14:52:31.769Z,58.52
2023-02-09T14:55:04.598Z,59.27
2023-02-09T14:57:36.570Z,60.08
2023-02-09T15:00:08.099Z,59.63
2023-02-09T15:02:39.938Z,59.56
2023-02-09T15:05:11.520Z,60.00
2023-02-09T15:07:43.357Z,59.98
2023-02-09T15:10:15.032Z,60.97
2023-02-09T15:12:46.776Z,61.66
2023-02-09T15:15:18.357Z,61.89
2023-02-09T15:17:49.971Z,62.17
2023-02-09T15:20:24.274Z,62.83
2023-02-09T15:22:56.189Z,62.58
2023-02-09T15:25:27.687Z,63.56
2023-02-09T15:27:59.361Z,63.16
2023-02-09T15:30:31.591Z,64.14
2023-02-09T15:33:03.775Z,63.96
2023-02-09T15:35:35.264Z,64.45
2023-02-09T15:38:06.940Z,65.35
2023-02-09T15:40:57.075Z,66.07
2023-02-09T15:43:47.197Z,66.81
2023-02-09T15:46:37.496Z,66.46
2023-02-09T15:49:09.023Z,66.86
2023-02-09T15:51:41.457Z,67.10
2023-02-09T15:54:12.978Z,68.31
2023-02-09T15:56:44.623Z,69.56
2023-02-09T15:59:16.090Z,69.00
2023-02-09T16:01:48.096Z,69.98
2023-02-09T16:04:19.660Z,69.60
2023-02-09T16:06:51.661Z,70.88
2023-02-09T16:09:24.338Z,71.13
2023-02-09T16:11:56.335Z,71.38
2023-02-09T16:14:28.360Z,71.93
2023-02-09T16:17:00.409Z,71.75
2023-02-09T16:19:31.987Z,71.67
2023-02-09T16:22:05.247Z,71.70
2023-02-09T16:24:36.791Z,72.46
2023-02-09T16:27:08.621Z,73.14
2023-02-09T16:29:40.154Z,72.82
2023-02-09T16:32:12.099Z,73.19
2023-02-09T16:34:43.684Z,73.08
2023-02-09T16:37:15.465Z,72.88
2023-02-09T16:39:46.962Z,74.07
2023-02-09T16:42:18.854Z,73.78
2023-02-09T16:44:50.336Z,74.04
2023-02-09T16:47:22.220Z,73.96
2023-02-09T16:49:53.708Z,74.99
2023-02-09T16:52:26.306Z,74.35
2023-02-09T16:54:57.799Z,74.89
2023-02-09T16:57:29.501Z,75.18
2023-02-09T17:00:00.994Z,75.20
2023-02-09T17:02:32.855Z,75.55
2023-02-09T17:05:04.441Z,76.14
2023-02-09T17:07:52.298Z,76.94
2023-02-09T17:10:25.332Z,76.26
2023-02-09T17:12:57.115Z,77.08
2023-02-09T17:15:31.053Z,77.04
2023-02-09T17:18:03.691Z,76.92
2023-02-09T17:20:35.238Z,76.05
2023-02-09T17:23:07.187Z,77.27
2023-02-09T17:25:38.665Z,76.14
2023-02-09T17:28:10.775Z,76.01
2023-02-09T17:30:42.272Z,76.27
2023-02-09T17:33:14.067Z,76.38
2023-02-09T17:36:17.709Z,76.26
2023-02-09T17:38:37.441Z,76.58
2023-02-09T17:41:08.973Z,76.28
2023-02-09T17:43:40.469Z,76.72
2023-02-09T17:46:12.006Z,76.39
2023-02-09T17:48:43.876Z,76.84
2023-02-09T17:51:15.450Z,77.41
2023-02-09T17:53:47.077Z,77.27
2023-02-09T17:56:19.345Z,77.50
2023-02-09T17:58:51.162Z,77.48
2023-02-09T18:01:25.337Z,77.73
2023-02-09T18:03:58.833Z,77.42
2023-02-09T18:06:33.491Z,77.80
2023-02-09T18:09:05.368Z,78.55
2023-02-09T18:11:36.867Z,78.58
2023-02-09T18:17:10.617Z,79.00
2023-02-09T18:19:42.163Z,79.55
2023-02-09T18:22:14.163Z,79.93
2023-02-09T18:24:45.705Z,80.59
2023-02-09T18:27:17.584Z,81.06
2023-02-09T18:29:49.121Z,80.93
2023-02-09T18:32:21.161Z,81.29
2023-02-09T18:34:52.807Z,80.86
2023-02-09T18:37:24.883Z,81.24
2023-02-09T18:39:56.396Z,81.51
2023-02-09T18:42:28.405Z,81.43
2023-02-09T18:44:59.954Z,82.11
2023-02-09T18:47:33.099Z,82.77
2023-02-09T18:50:04.751Z,82.55
2023-02-09T18:52:36.736Z,82.32
2023-02-09T18:55:08.256Z,82.44
2023-02-09T18:57:40.146Z,82.61
2023-02-09T19:00:11.650Z,82.58
2023-02-09T19:02:44.654Z,82.67
2023-02-09T19:05:16.216Z,82.93
2023-02-09T19:07:48.154Z,83.38
2023-02-09T19:10:19.659Z,83.21
2023-02-09T19:12:51.466Z,83.84
2023-02-09T19:15:25.807Z,84.09
2023-02-09T19:17:57.547Z,84.46
2023-02-09T19:20:29.080Z,84.68
2023-02-09T19:23:01.084Z,84.94
2023-02-09T19:25:33.211Z,84.57
2023-02-09T19:28:04.773Z,84.83
2023-02-09T19:30:36.419Z,84.99
2023-02-09T19:33:08.095Z,84.95
2023-02-09T19:35:39.767Z,84.86
2023-02-09T19:38:11.561Z,85.60
2023-02-09T19:40:43.405Z,85.73
2023-02-09T19:43:15.163Z,85.62
2023-02-09T19:45:47.034Z,86.34
2023-02-09T19:48:22.463Z,86.00
2023-02-09T19:50:54.066Z,86.34
2023-02-09T19:53:25.580Z,86.33
2023-02-09T19:55:57.224Z,86.50
2023-02-09T19:58:28.993Z,86.27
2023-02-09T20:01:02.022Z,86.13
2023-02-09T20:03:33.790Z,87.13
2023-02-09T20:06:05.371Z,86.90
2023-02-09T20:08:37.391Z,87.48
2023-02-09T20:11:08.869Z,87.88
2023-02-09T20:13:40.439Z,87.56
2023-02-09T20:16:11.991Z,88.41
2023-02-09T20:18:43.825Z,87.57
2023-02-09T20:21:15.352Z,88.34
2023-02-09T20:23:47.428Z,88.45
2023-02-09T20:26:19.275Z,87.70
2023-02-09T20:28:51.226Z,88.64
2023-02-09T20:31:22.780Z,88.66
2023-02-09T20:33:54.304Z,88.82
2023-02-09T20:36:25.966Z,89.26
2023-02-09T20:38:57.514Z,88.85
2023-02-09T20:41:29.026Z,90.09
2023-02-09T20:44:19.319Z,90.40
2023-02-09T20:46:57.011Z,90.47
2023-02-09T20:49:36.266Z,89.97
2023-02-09T20:52:07.827Z,90.51
2023-02-09T20:54:39.710Z,91.44
2023-02-09T20:57:11.254Z,91.04
2023-02-09T20:59:42.841Z,90.96
2023-02-09T21:02:15.853Z,91.37
2023-02-09T21:04:47.711Z,91.23
2023-02-09T21:07:20.185Z,91.87
2023-02-09T21:09:54.277Z,91.55
2023-02-09T21:12:25.805Z,92.01
2023-02-09T21:14:58.935Z,91.83
2023-02-09T21:17:30.579Z,92.40
2023-02-09T21:20:02.416Z,92.13
2023-02-09T21:22:33.986Z,92.67
2023-02-09T21:25:05.877Z,92.52
2023-02-09T21:27:37.450Z,92.51
2023-02-09T21:30:09.148Z,92.23
2023-02-09T21:32:40.670Z,90.97
2023-02-09T21:35:12.484Z,90.56
2023-02-09T21:37:44.511Z,91.09
2023-02-09T21:40:16.514Z,90.97
2023-02-09T21:42:48.022Z,91.03
2023-02-09T21:45:19.558Z,90.17
2023-02-09T21:47:51.658Z,89.76
2023-02-09T21:50:23.372Z,89.87
2023-02-09T21:52:54.934Z,90.07
2023-02-09T21:55:26.476Z,89.89
2023-02-09T21:57:58.139Z,89.34
2023-02-09T22:00:31.153Z,89.53
2023-02-09T22:03:02.807Z,89.61
2023-02-09T22:05:34.330Z,88.99
2023-02-09T22:08:06.191Z,88.68
2023-02-09T22:10:37.696Z,89.03
2023-02-09T22:13:09.863Z,88.70
2023-02-09T22:15:41.408Z,88.75
2023-02-09T22:18:13.306Z,88.51
2023-02-09T22:20:46.828Z,88.30
2023-02-09T22:23:18.806Z,88.66
2023-02-09T22:25:50.356Z,88.24
2023-02-09T22:28:22.060Z,88.52
2023-02-09T22:30:53.612Z,88.72
2023-02-09T22:33:25.199Z,88.80
2023-02-09T22:35:56.690Z,88.64
2023-02-09T22:38:28.440Z,88.93
2023-02-09T22:40:59.938Z,89.27
2023-02-09T22:43:31.805Z,88.65
2023-02-09T22:46:03.322Z,88.67
2023-02-09T22:48:35.172Z,88.73
2023-02-09T22:51:06.685Z,88.23
2023-02-09T22:53:38.257Z,88.42
2023-02-09T22:56:09.892Z,88.25
2023-02-09T22:58:41.705Z,88.33
2023-02-09T23:01:13.414Z,87.99
2023-02-09T23:03:45.038Z,87.40
2023-02-09T23:06:16.595Z,87.55
2023-02-09T23:08:48.483Z,87.82
2023-02-09T23:11:19.990Z,88.04
2023-02-09T23:14:07.081Z,88.00
2023-02-09T23:16:40.500Z,87.04
2023-02-09T23:19:13.310Z,87.58
2023-02-09T23:21:44.866Z,87.90
2023-02-09T23:24:16.753Z,87.31
2023-02-09T23:26:48.289Z,87.04
2023-02-09T23:29:20.178Z,86.46
2023-02-09T23:31:51.681Z,86.33
2023-02-09T23:34:23.594Z,86.03
2023-02-09T23:36:55.107Z,86.05
2023-02-09T23:39:28.644Z,86.46
2023-02-09T23:42:00.185Z,86.22
2023-02-09T23:44:31.762Z,85.67
2023-02-09T23:47:03.332Z,86.24
2023-02-09T23:49:35.654Z,86.39
2023-02-09T23:52:07.187Z,86.13
2023-02-09T23:54:38.866Z,86.01
2023-02-09T23:57:10.388Z,86.26
2023-02-09T23:59:42.252Z,86.93
